createdAt,value
2018-08-04T00:01:07.237Z,23.70
2018-08-04T00:03:36.949Z,23.60
2018-08-04T00:06:06.353Z,23.50
2018-08-04T00:08:36.783Z,23.50
2018-08-04T00:11:06.284Z,23.50
2018-08-04T00:13:35.718Z,23.40
2018-08-04T00:16:05.307Z,23.40
2018-08-04T00:18:35.034Z,23.50
2018-08-04T00:21:04.530Z,23.40
2018-08-04T00:23:34.694Z,23.40
2018-08-04T00:26:04.276Z,23.50
2018-08-04T00:28:33.423Z,23.60
2018-08-04T00:31:03.191Z,23.60
2018-08-04T00:33:33.258Z,23.60
2018-08-04T00:36:02.900Z,23.60
2018-08-04T00:38:32.419Z,23.60
2018-08-04T00:41:02.112Z,23.70
2018-08-04T00:43:31.685Z,23.70
2018-08-04T00:46:01.142Z,23.80
2018-08-04T00:48:30.903Z,23.80
2018-08-04T00:51:01.166Z,23.80
2018-08-04T00:53:30.782Z,23.80
2018-08-04T00:56:00.709Z,23.80
2018-08-04T00:58:30.302Z,23.90
2018-08-04T01:00:59.598Z,23.90
2018-08-04T01:03:29.198Z,23.90
2018-08-04T01:05:58.784Z,24.00
2018-08-04T01:08:29.169Z,23.80
2018-08-04T01:10:59.025Z,23.80
2018-08-04T01:13:28.463Z,23.70
2018-08-04T01:15:58.099Z,23.50
2018-08-04T01:18:29.026Z,23.50
2018-08-04T01:20:58.479Z,23.40
2018-08-04T01:23:28.007Z,23.40
2018-08-04T01:25:57.839Z,23.30
2018-08-04T01:28:27.388Z,23.30
2018-08-04T01:30:57.860Z,23.40
2018-08-04T01:33:27.368Z,23.30
2018-08-04T01:35:58.250Z,23.30
2018-08-04T01:38:28.245Z,23.20
2018-08-04T01:40:57.840Z,23.20
2018-08-04T01:43:27.395Z,23.10
2018-08-04T01:45:56.721Z,23.10
2018-08-04T01:48:27.458Z,23.10
2018-08-04T01:50:57.214Z,23.10
2018-08-04T01:53:27.095Z,23.00
2018-08-04T01:55:56.426Z,23.00
2018-08-04T01:58:25.998Z,22.90
2018-08-04T02:00:55.723Z,22.90
2018-08-04T02:03:25.612Z,22.90
2018-08-04T02:05:56.132Z,22.80
2018-08-04T02:08:25.732Z,22.80
2018-08-04T02:10:56.873Z,22.70
2018-08-04T02:13:27.644Z,22.60
2018-08-04T02:15:57.191Z,22.60
2018-08-04T02:18:26.796Z,22.50
2018-08-04T02:20:56.269Z,22.50
2018-08-04T02:23:25.727Z,22.50
2018-08-04T02:25:55.944Z,22.50
2018-08-04T02:28:25.415Z,22.40
2018-08-04T02:30:55.000Z,22.50
2018-08-04T02:33:25.809Z,22.60
2018-08-04T02:35:55.320Z,22.50
2018-08-04T02:38:24.892Z,22.60
2018-08-04T02:40:54.470Z,22.60
2018-08-04T02:43:24.193Z,22.60
2018-08-04T02:45:54.226Z,22.50
2018-08-04T02:48:28.076Z,22.40
2018-08-04T02:50:57.863Z,22.30
2018-08-04T02:53:27.367Z,22.30
2018-08-04T02:55:56.872Z,22.30
2018-08-04T02:58:26.915Z,22.30
2018-08-04T03:00:56.705Z,22.20
2018-08-04T03:03:27.125Z,22.10
2018-08-04T03:05:56.597Z,22.10
2018-08-04T03:08:26.126Z,22.10
2018-08-04T03:10:56.471Z,22.00
2018-08-04T03:13:25.988Z,21.90
2018-08-04T03:15:55.138Z,21.80
2018-08-04T03:18:24.896Z,21.70
2018-08-04T03:20:55.418Z,21.70
2018-08-04T03:23:27.927Z,21.60
2018-08-04T03:25:57.076Z,21.60
2018-08-04T03:28:27.358Z,21.50
2018-08-04T03:30:57.096Z,21.50
2018-08-04T03:33:27.010Z,21.50
2018-08-04T03:35:56.564Z,21.50
2018-08-04T03:38:26.131Z,21.40
2018-08-04T03:40:55.583Z,21.40
2018-08-04T03:43:25.061Z,21.30
2018-08-04T03:45:55.064Z,21.20
2018-08-04T03:48:25.748Z,21.10
2018-08-04T03:50:55.329Z,21.10
2018-08-04T03:53:24.581Z,21.10
2018-08-04T03:55:54.007Z,21.00
2018-08-04T03:58:23.613Z,20.90
2018-08-04T04:00:53.248Z,20.90
2018-08-04T04:03:22.987Z,20.90
2018-08-04T04:05:52.823Z,20.90
2018-08-04T04:08:22.609Z,20.90
2018-08-04T04:10:52.116Z,20.80
2018-08-04T04:13:21.673Z,20.80
2018-08-04T04:15:52.867Z,20.80
2018-08-04T04:18:22.457Z,20.80
2018-08-04T04:20:51.948Z,20.80
2018-08-04T04:23:21.589Z,20.80
2018-08-04T04:25:51.470Z,20.80
2018-08-04T04:28:21.044Z,20.80
2018-08-04T04:30:50.639Z,20.80
2018-08-04T04:33:20.472Z,20.90
2018-08-04T04:35:50.341Z,20.90
2018-08-04T04:38:19.776Z,20.80
2018-08-04T04:40:49.097Z,20.80
2018-08-04T04:43:18.476Z,20.80
2018-08-04T04:45:47.868Z,20.80
2018-08-04T04:48:19.602Z,20.80
2018-08-04T04:50:49.480Z,20.80
2018-08-04T04:53:19.632Z,20.80
2018-08-04T04:55:49.259Z,20.90
2018-08-04T04:58:18.877Z,20.80
2018-08-04T05:00:48.634Z,20.80
2018-08-04T05:03:18.099Z,20.80
2018-08-04T05:05:47.852Z,20.80
2018-08-04T05:08:17.229Z,20.80
2018-08-04T05:10:46.758Z,20.80
2018-08-04T05:13:16.374Z,20.70
2018-08-04T05:15:46.273Z,20.80
2018-08-04T05:18:16.932Z,20.70
2018-08-04T05:20:47.049Z,20.70
2018-08-04T05:23:16.293Z,20.70
2018-08-04T05:25:46.644Z,20.60
2018-08-04T05:28:16.856Z,20.60
2018-08-04T05:30:46.581Z,20.50
2018-08-04T05:33:16.425Z,20.40
2018-08-04T05:35:46.110Z,20.40
2018-08-04T05:38:15.524Z,20.30
2018-08-04T05:40:44.936Z,20.20
2018-08-04T05:43:14.707Z,20.20
2018-08-04T05:45:44.081Z,20.10
2018-08-04T05:48:13.661Z,20.10
2018-08-04T05:50:43.627Z,20.00
2018-08-04T05:53:13.397Z,19.90
2018-08-04T05:55:42.969Z,19.80
2018-08-04T05:58:12.676Z,19.80
2018-08-04T06:00:42.280Z,19.80
2018-08-04T06:03:12.099Z,19.70
2018-08-04T06:05:41.838Z,19.60
2018-08-04T06:08:11.431Z,19.60
2018-08-04T06:10:40.729Z,19.50
2018-08-04T06:13:10.109Z,19.50
2018-08-04T06:15:39.760Z,19.50
2018-08-04T06:18:09.267Z,19.40
2018-08-04T06:20:39.669Z,19.40
2018-08-04T06:23:09.202Z,19.40
2018-08-04T06:25:38.788Z,19.30
2018-08-04T06:28:08.413Z,19.30
2018-08-04T06:30:37.894Z,19.20
2018-08-04T06:33:07.320Z,19.20
2018-08-04T06:35:36.797Z,19.10
2018-08-04T06:38:07.257Z,19.10
2018-08-04T06:40:37.341Z,19.00
2018-08-04T06:43:07.063Z,19.00
2018-08-04T06:45:36.569Z,18.90
2018-08-04T06:48:05.778Z,18.90
2018-08-04T06:50:36.090Z,18.90
2018-08-04T06:53:06.584Z,18.80
2018-08-04T06:55:36.027Z,18.80
2018-08-04T06:58:06.382Z,18.70
2018-08-04T07:00:35.759Z,18.70
2018-08-04T07:03:05.147Z,18.70
2018-08-04T07:05:34.925Z,18.70
2018-08-04T07:08:04.435Z,18.70
2018-08-04T07:10:33.923Z,18.70
2018-08-04T07:13:03.559Z,18.60
2018-08-04T07:15:33.091Z,18.60
2018-08-04T07:18:02.854Z,18.60
2018-08-04T07:20:32.891Z,18.60
2018-08-04T07:23:02.554Z,18.50
2018-08-04T07:25:32.297Z,18.60
2018-08-04T07:28:04.772Z,18.60
2018-08-04T07:30:34.668Z,18.50
2018-08-04T07:33:04.909Z,18.50
2018-08-04T07:35:34.372Z,18.50
2018-08-04T07:38:03.636Z,18.50
2018-08-04T07:40:33.550Z,18.50
2018-08-04T07:43:03.727Z,18.50
2018-08-04T07:45:33.751Z,18.50
2018-08-04T07:48:03.212Z,18.50
2018-08-04T07:50:32.816Z,18.50
2018-08-04T07:53:03.388Z,18.50
2018-08-04T07:55:34.342Z,18.50
2018-08-04T07:58:05.117Z,18.50
2018-08-04T08:00:34.673Z,18.50
2018-08-04T08:03:04.266Z,18.50
2018-08-04T08:05:34.901Z,18.50
2018-08-04T08:08:04.333Z,18.50
2018-08-04T08:10:34.150Z,18.50
2018-08-04T08:13:04.027Z,18.40
2018-08-04T08:15:33.636Z,18.40
2018-08-04T08:18:03.150Z,18.40
2018-08-04T08:20:32.837Z,18.40
2018-08-04T08:23:03.578Z,18.40
2018-08-04T08:25:34.925Z,18.40
2018-08-04T08:28:04.223Z,18.40
2018-08-04T08:30:33.597Z,18.30
2018-08-04T08:33:03.367Z,18.30
2018-08-04T08:35:33.148Z,18.30
2018-08-04T08:38:02.697Z,18.30
2018-08-04T08:40:32.687Z,18.30
2018-08-04T08:43:03.402Z,18.30
2018-08-04T08:45:32.801Z,18.20
2018-08-04T08:48:02.426Z,18.20
2018-08-04T08:50:32.073Z,18.10
2018-08-04T08:53:01.759Z,18.10
2018-08-04T08:55:31.302Z,18.00
2018-08-04T08:58:00.811Z,18.00
2018-08-04T09:00:30.616Z,17.90
2018-08-04T09:02:59.873Z,17.90
2018-08-04T09:05:29.420Z,17.90
2018-08-04T09:07:59.127Z,18.00
2018-08-04T09:10:28.559Z,17.90
2018-08-04T09:12:57.991Z,17.90
2018-08-04T09:15:27.662Z,17.90
2018-08-04T09:17:57.064Z,18.00
2018-08-04T09:20:26.578Z,18.00
2018-08-04T09:22:56.335Z,18.00
2018-08-04T09:25:25.975Z,18.00
2018-08-04T09:27:55.572Z,18.00
2018-08-04T09:30:24.944Z,18.00
2018-08-04T09:32:54.360Z,17.90
2018-08-04T09:35:24.125Z,17.90
2018-08-04T09:37:53.626Z,17.90
2018-08-04T09:40:23.476Z,17.80
2018-08-04T09:42:53.833Z,17.80
2018-08-04T09:45:25.826Z,17.80
2018-08-04T09:47:55.188Z,17.80
2018-08-04T09:50:24.970Z,17.70
2018-08-04T09:52:54.968Z,17.70
2018-08-04T09:55:24.407Z,17.70
2018-08-04T09:57:54.154Z,17.60
2018-08-04T10:00:24.395Z,17.60
2018-08-04T10:02:54.076Z,17.60
2018-08-04T10:05:23.492Z,17.60
2018-08-04T10:07:53.432Z,17.60
2018-08-04T10:10:23.908Z,17.60
2018-08-04T10:12:54.371Z,17.50
2018-08-04T10:15:23.747Z,17.50
2018-08-04T10:17:53.041Z,17.40
2018-08-04T10:20:23.534Z,17.30
2018-08-04T10:22:53.173Z,17.30
2018-08-04T10:25:23.313Z,17.20
2018-08-04T10:27:53.234Z,17.20
2018-08-04T10:30:24.065Z,17.20
2018-08-04T10:32:53.711Z,17.20
2018-08-04T10:35:24.041Z,17.20
2018-08-04T10:37:53.993Z,17.20
2018-08-04T10:40:24.298Z,17.10
2018-08-04T10:42:54.731Z,17.10
2018-08-04T10:45:24.682Z,17.10
2018-08-04T10:47:54.395Z,17.10
2018-08-04T10:50:23.858Z,17.10
2018-08-04T10:52:53.228Z,17.10
2018-08-04T10:55:23.819Z,17.10
2018-08-04T10:57:53.025Z,17.10
2018-08-04T11:00:23.892Z,17.10
2018-08-04T11:02:53.525Z,17.10
2018-08-04T11:05:23.073Z,17.10
2018-08-04T11:07:52.389Z,17.10
2018-08-04T11:10:22.242Z,17.10
2018-08-04T11:12:51.968Z,17.00
2018-08-04T11:15:21.426Z,17.00
2018-08-04T11:17:50.786Z,17.00
2018-08-04T11:20:20.350Z,17.00
2018-08-04T11:22:49.769Z,17.00
2018-08-04T11:25:19.297Z,17.10
2018-08-04T11:27:48.904Z,17.00
2018-08-04T11:30:18.260Z,17.00
2018-08-04T11:32:47.916Z,17.00
2018-08-04T11:35:17.444Z,17.00
2018-08-04T11:37:47.186Z,17.00
2018-08-04T11:40:17.782Z,16.90
2018-08-04T11:42:48.052Z,16.80
2018-08-04T11:45:17.711Z,16.90
2018-08-04T11:47:47.039Z,16.90
2018-08-04T11:50:16.595Z,16.90
2018-08-04T11:52:46.143Z,16.90
2018-08-04T11:55:19.051Z,17.00
2018-08-04T11:57:48.439Z,17.00
2018-08-04T12:00:17.968Z,17.00
2018-08-04T12:02:47.512Z,17.00
2018-08-04T12:05:18.494Z,17.10
2018-08-04T12:07:48.050Z,17.10
2018-08-04T12:10:17.874Z,17.10
2018-08-04T12:12:47.438Z,17.00
2018-08-04T12:15:17.128Z,17.10
2018-08-04T12:17:46.571Z,17.10
2018-08-04T12:20:16.196Z,17.10
2018-08-04T12:22:45.701Z,17.10
2018-08-04T12:25:16.147Z,17.00
2018-08-04T12:27:45.777Z,17.00
2018-08-04T12:30:15.410Z,17.00
2018-08-04T12:32:45.161Z,16.90
2018-08-04T12:35:14.850Z,16.90
2018-08-04T12:37:44.326Z,16.80
2018-08-04T12:40:13.603Z,16.70
2018-08-04T12:42:43.062Z,16.70
2018-08-04T12:45:12.888Z,16.70
2018-08-04T12:47:42.175Z,16.70
2018-08-04T12:50:11.835Z,16.70
2018-08-04T12:52:41.251Z,16.70
2018-08-04T12:55:10.744Z,16.70
2018-08-04T12:57:40.356Z,16.60
2018-08-04T13:00:09.886Z,16.60
2018-08-04T13:02:39.231Z,16.70
2018-08-04T13:05:08.931Z,16.60
2018-08-04T13:07:38.530Z,16.60
2018-08-04T13:10:08.049Z,16.60
2018-08-04T13:12:40.196Z,16.60
2018-08-04T13:15:09.690Z,16.60
2018-08-04T13:17:40.202Z,16.60
2018-08-04T13:20:09.804Z,16.60
2018-08-04T13:22:39.210Z,16.60
2018-08-04T13:25:08.994Z,16.60
2018-08-04T13:27:38.899Z,16.70
2018-08-04T13:30:08.680Z,16.70
2018-08-04T13:32:38.353Z,16.70
2018-08-04T13:35:08.405Z,16.80
2018-08-04T13:37:37.983Z,16.70
2018-08-04T13:40:07.465Z,16.70
2018-08-04T13:42:37.031Z,16.70
2018-08-04T13:45:06.572Z,16.80
2018-08-04T13:47:36.336Z,16.80
2018-08-04T13:50:06.765Z,16.70
2018-08-04T13:52:36.668Z,16.70
2018-08-04T13:55:06.124Z,16.90
2018-08-04T13:57:35.657Z,17.00
2018-08-04T14:00:05.616Z,16.90
2018-08-04T14:02:36.151Z,17.10
2018-08-04T14:05:06.801Z,17.10
2018-08-04T14:07:37.982Z,17.10
2018-08-04T14:10:07.236Z,17.20
2018-08-04T14:12:36.744Z,17.30
2018-08-04T14:15:07.027Z,17.40
2018-08-04T14:17:37.728Z,17.50
2018-08-04T14:20:07.127Z,17.50
2018-08-04T14:22:37.597Z,17.60
2018-08-04T14:25:08.048Z,17.80
2018-08-04T14:27:37.707Z,17.80
2018-08-04T14:30:07.192Z,17.90
2018-08-04T14:32:36.947Z,18.00
2018-08-04T14:35:06.433Z,18.10
2018-08-04T14:37:35.968Z,18.20
2018-08-04T14:40:05.329Z,18.30
2018-08-04T14:42:35.090Z,18.30
2018-08-04T14:45:05.728Z,18.60
2018-08-04T14:47:35.267Z,18.50
2018-08-04T14:50:04.981Z,18.80
2018-08-04T14:52:34.773Z,19.00
2018-08-04T14:55:04.361Z,19.00
2018-08-04T14:57:34.782Z,19.10
2018-08-04T15:00:04.660Z,19.10
2018-08-04T15:02:35.127Z,19.30
2018-08-04T15:05:04.692Z,19.40
2018-08-04T15:07:34.100Z,19.60
2018-08-04T15:10:03.744Z,19.70
2018-08-04T15:12:33.307Z,19.70
2018-08-04T15:15:03.220Z,19.80
2018-08-04T15:17:32.812Z,20.00
2018-08-04T15:20:02.932Z,20.10
2018-08-04T15:22:32.369Z,20.20
2018-08-04T15:25:01.956Z,20.20
2018-08-04T15:27:31.573Z,20.40
2018-08-04T15:30:01.360Z,20.50
2018-08-04T15:32:30.892Z,20.60
2018-08-04T15:35:00.462Z,20.60
2018-08-04T15:37:30.108Z,20.60
2018-08-04T15:40:00.467Z,20.70
2018-08-04T15:42:30.124Z,20.80
2018-08-04T15:44:59.735Z,20.90
2018-08-04T15:47:29.206Z,21.10
2018-08-04T15:49:59.189Z,21.20
2018-08-04T15:52:28.695Z,21.10
2018-08-04T15:54:58.326Z,21.00
2018-08-04T15:57:28.113Z,21.20
2018-08-04T15:59:57.503Z,21.30
2018-08-04T16:02:28.114Z,21.40
2018-08-04T16:04:59.110Z,21.50
2018-08-04T16:07:28.649Z,21.50
2018-08-04T16:09:58.259Z,21.70
2018-08-04T16:12:27.864Z,21.80
2018-08-04T16:14:57.500Z,21.80
2018-08-04T16:17:27.008Z,21.80
2018-08-04T16:19:57.589Z,22.00
2018-08-04T16:22:27.105Z,22.00
2018-08-04T16:24:56.928Z,22.20
2018-08-04T16:27:26.515Z,22.40
2018-08-04T16:29:56.032Z,22.50
2018-08-04T16:32:25.621Z,22.60
2018-08-04T16:34:55.128Z,22.60
2018-08-04T16:37:24.783Z,22.70
2018-08-04T16:39:54.130Z,22.90
2018-08-04T16:42:23.552Z,22.90
2018-08-04T16:44:52.986Z,23.00
2018-08-04T16:47:22.693Z,23.20
2018-08-04T16:49:52.105Z,23.30
2018-08-04T16:52:21.424Z,23.50
2018-08-04T16:54:51.105Z,23.40
2018-08-04T16:57:20.577Z,23.40
2018-08-04T16:59:50.534Z,23.50
2018-08-04T17:02:20.005Z,23.80
2018-08-04T17:04:49.619Z,24.20
2018-08-04T17:07:19.508Z,24.50
2018-08-04T17:09:49.072Z,24.70
2018-08-04T17:12:18.721Z,24.90
2018-08-04T17:14:49.964Z,25.10
2018-08-04T17:17:20.569Z,25.50
2018-08-04T17:19:50.021Z,26.20
2018-08-04T17:22:19.683Z,28.60
2018-08-04T17:24:49.417Z,31.90
2018-08-04T17:27:19.368Z,38.70
2018-08-04T17:29:48.808Z,38.50
2018-08-04T17:32:18.327Z,41.60
2018-08-04T17:34:47.727Z,42.80
2018-08-04T17:37:18.223Z,43.10
2018-08-04T17:39:48.902Z,45.70
2018-08-04T17:42:20.201Z,47.30
2018-08-04T17:44:50.177Z,47.30
2018-08-04T17:47:19.615Z,48.10
2018-08-04T17:49:49.059Z,49.00
2018-08-04T17:52:18.639Z,48.90
2018-08-04T17:54:48.231Z,48.70
2018-08-04T17:57:17.942Z,49.30
2018-08-04T17:59:48.523Z,50.60
2018-08-04T18:02:18.742Z,51.40
2018-08-04T18:04:48.754Z,51.60
2018-08-04T18:07:18.545Z,51.50
2018-08-04T18:09:48.116Z,51.90
2018-08-04T18:12:17.932Z,51.50
2018-08-04T18:14:48.443Z,51.70
2018-08-04T18:17:18.918Z,51.90
2018-08-04T18:19:49.671Z,52.30
2018-08-04T18:22:19.418Z,50.60
2018-08-04T18:24:49.618Z,49.90
2018-08-04T18:27:18.947Z,49.50
2018-08-04T18:29:48.324Z,50.00
2018-08-04T18:32:18.435Z,48.70
2018-08-04T18:34:49.999Z,48.60
2018-08-04T18:37:19.518Z,49.90
2018-08-04T18:39:49.137Z,51.30
2018-08-04T18:42:18.856Z,51.80
2018-08-04T18:44:48.726Z,52.60
2018-08-04T18:47:18.324Z,51.60
2018-08-04T18:49:47.866Z,51.00
2018-08-04T18:52:18.762Z,50.00
2018-08-04T18:54:49.152Z,49.80
2018-08-04T18:57:19.217Z,49.80
2018-08-04T18:59:50.101Z,49.70
2018-08-04T19:02:19.929Z,47.10
2018-08-04T19:04:50.196Z,46.40
2018-08-04T19:07:20.819Z,43.20
2018-08-04T19:09:50.943Z,40.60
2018-08-04T19:12:20.490Z,40.50
2018-08-04T19:14:50.085Z,37.90
2018-08-04T19:17:19.297Z,36.20
2018-08-04T19:19:49.684Z,34.40
2018-08-04T19:22:19.162Z,33.50
2018-08-04T19:24:48.502Z,32.60
2018-08-04T19:27:19.015Z,32.00
2018-08-04T19:29:48.417Z,31.30
2018-08-04T19:32:17.996Z,30.70
2018-08-04T19:34:47.562Z,30.10
2018-08-04T19:37:52.320Z,29.70
2018-08-04T19:40:24.076Z,29.10
2018-08-04T19:42:54.894Z,29.10
2018-08-04T19:45:25.006Z,29.00
2018-08-04T19:47:55.399Z,29.60
2018-08-04T19:50:24.817Z,29.60
2018-08-04T19:52:54.147Z,29.80
2018-08-04T19:55:23.592Z,29.90
2018-08-04T19:57:54.414Z,30.20
2018-08-04T20:00:23.933Z,30.40
2018-08-04T20:02:53.177Z,31.10
2018-08-04T20:05:23.728Z,31.10
2018-08-04T20:07:53.512Z,31.10
2018-08-04T20:10:23.175Z,31.00
2018-08-04T20:12:52.504Z,31.10
2018-08-04T20:15:21.924Z,30.90
2018-08-04T20:17:53.512Z,30.80
2018-08-04T20:20:23.510Z,30.70
2018-08-04T20:22:55.278Z,29.80
2018-08-04T20:25:24.728Z,29.90
2018-08-04T20:27:55.315Z,29.80
2018-08-04T20:30:24.648Z,29.70
2018-08-04T20:32:54.216Z,29.80
2018-08-04T20:35:23.746Z,29.60
2018-08-04T20:37:53.641Z,29.60
2018-08-04T20:40:24.136Z,29.60
2018-08-04T20:42:54.563Z,29.60
2018-08-04T20:45:24.390Z,29.30
2018-08-04T20:47:53.798Z,29.10
2018-08-04T20:50:24.638Z,29.00
2018-08-04T20:52:55.205Z,29.00
2018-08-04T20:55:24.876Z,28.90
2018-08-04T20:57:55.001Z,28.80
2018-08-04T21:00:25.291Z,28.60
2018-08-04T21:02:55.098Z,28.30
2018-08-04T21:05:24.589Z,28.10
2018-08-04T21:07:54.002Z,28.10
2018-08-04T21:10:22.989Z,28.20
2018-08-04T21:12:53.142Z,28.10
2018-08-04T21:15:22.869Z,27.90
2018-08-04T21:17:52.502Z,27.70
2018-08-04T21:20:23.718Z,27.60
2018-08-04T21:22:53.221Z,27.60
2018-08-04T21:25:23.520Z,27.60
2018-08-04T21:27:52.838Z,27.60
2018-08-04T21:30:23.948Z,27.50
2018-08-04T21:32:54.584Z,27.60
2018-08-04T21:35:24.628Z,27.70
2018-08-04T21:37:54.891Z,27.60
2018-08-04T21:40:24.355Z,27.50
2018-08-04T21:42:53.885Z,27.50
2018-08-04T21:45:23.771Z,27.40
2018-08-04T21:47:53.551Z,27.30
2018-08-04T21:50:22.986Z,27.20
2018-08-04T21:52:52.581Z,27.00
2018-08-04T21:55:22.387Z,27.10
2018-08-04T21:57:52.502Z,27.20
2018-08-04T22:00:22.219Z,27.10
2018-08-04T22:02:52.176Z,27.10
2018-08-04T22:05:21.839Z,27.10
2018-08-04T22:08:02.424Z,27.20
2018-08-04T22:10:32.947Z,27.40
2018-08-04T22:13:02.772Z,27.40
2018-08-04T22:15:32.506Z,27.40
2018-08-04T22:18:02.046Z,27.30
2018-08-04T22:20:31.555Z,27.30
2018-08-04T22:23:02.362Z,27.40
2018-08-04T22:25:31.917Z,27.50
2018-08-04T22:28:01.623Z,27.30
2018-08-04T22:30:31.225Z,27.20
2018-08-04T22:33:01.061Z,27.10
2018-08-04T22:35:30.799Z,27.20
2018-08-04T22:38:00.330Z,27.20
2018-08-04T22:40:31.164Z,27.40
2018-08-04T22:43:00.672Z,27.40
2018-08-04T22:45:31.216Z,27.40
2018-08-04T22:48:01.393Z,27.40
2018-08-04T22:50:30.869Z,27.50
2018-08-04T22:53:00.454Z,27.70
2018-08-04T22:55:30.310Z,27.70
2018-08-04T22:57:59.907Z,27.80
2018-08-04T23:00:29.613Z,27.90
2018-08-04T23:02:59.224Z,27.80
2018-08-04T23:05:31.039Z,28.00
2018-08-04T23:08:00.673Z,27.90
2018-08-04T23:10:31.084Z,27.70
2018-08-04T23:13:00.951Z,27.70
2018-08-04T23:15:30.444Z,27.60
2018-08-04T23:18:00.933Z,27.70
2018-08-04T23:20:31.107Z,27.80
2018-08-04T23:23:00.984Z,27.80
2018-08-04T23:25:31.519Z,27.70
2018-08-04T23:28:01.188Z,27.70
2018-08-04T23:30:31.575Z,27.60
2018-08-04T23:33:00.834Z,27.60
2018-08-04T23:35:31.464Z,27.50
2018-08-04T23:38:02.599Z,27.50
2018-08-04T23:40:32.348Z,27.50
2018-08-04T23:43:02.652Z,27.60
2018-08-04T23:45:33.052Z,27.50
2018-08-04T23:48:02.383Z,27.50
2018-08-04T23:50:31.675Z,27.30
2018-08-04T23:53:01.007Z,27.30
2018-08-04T23:55:30.792Z,27.20
2018-08-04T23:58:00.466Z,27.40
